sensor_id;sensor_type;location;lat;lon;timestamp;pressure;altitude;pressure_sealevel;temperature;humidity
46241;BME280;31961;52.416;-0.732;2023-04-03T00:01:43;102315.92;;;1.79;100.00
46241;BME280;31961;52.416;-0.732;2023-04-03T00:04:10;102313.80;;;2.15;100.00
46241;BME280;31961;52.416;-0.732;2023-04-03T00:06:37;102311.91;;;1.69;100.00
46241;BME280;31961;52.416;-0.732;2023-04-03T00:09:04;102311.20;;;1.99;100.00
46241;BME280;31961;52.416;-0.732;2023-04-03T00:11:31;102315.17;;;1.50;100.00
46241;BME280;31961;52.416;-0.732;2023-04-03T00:13:58;102323.05;;;1.51;100.00
46241;BME280;31961;52.416;-0.732;2023-04-03T00:16:25;102322.54;;;0.84;100.00
46241;BME280;31961;52.416;-0.732;2023-04-03T00:18:52;102324.09;;;1.70;100.00
46241;BME280;31961;52.416;-0.732;2023-04-03T00:21:19;102321.65;;;1.16;100.00
46241;BME280;31961;52.416;-0.732;2023-04-03T00:23:46;102322.18;;;1.89;100.00
46241;BME280;31961;52.416;-0.732;2023-04-03T00:26:13;102322.10;;;2.09;100.00
46241;BME280;31961;52.416;-0.732;2023-04-03T00:28:41;102323.63;;;2.21;100.00
46241;BME280;31961;52.416;-0.732;2023-04-03T00:31:08;102318.10;;;2.09;100.00
46241;BME280;31961;52.416;-0.732;2023-04-03T00:33:35;102316.48;;;1.69;100.00
46241;BME280;31961;52.416;-0.732;2023-04-03T00:36:06;102316.79;;;1.82;100.00
46241;BME280;31961;52.416;-0.732;2023-04-03T00:38:33;102313.72;;;1.83;100.00
46241;BME280;31961;52.416;-0.732;2023-04-03T00:41:00;102309.12;;;1.99;100.00
46241;BME280;31961;52.416;-0.732;2023-04-03T00:43:27;102312.95;;;1.77;100.00
46241;BME280;31961;52.416;-0.732;2023-04-03T00:45:56;102315.35;;;1.71;100.00
46241;BME280;31961;52.416;-0.732;2023-04-03T00:48:28;102308.83;;;1.34;100.00
46241;BME280;31961;52.416;-0.732;2023-04-03T00:50:56;102306.57;;;0.77;100.00
46241;BME280;31961;52.416;-0.732;2023-04-03T00:53:27;102309.45;;;1.40;100.00
46241;BME280;31961;52.416;-0.732;2023-04-03T00:55:57;102308.87;;;1.16;100.00
46241;BME280;31961;52.416;-0.732;2023-04-03T00:58:31;102305.46;;;0.84;100.00
46241;BME280;31961;52.416;-0.732;2023-04-03T01:01:03;102304.87;;;1.73;100.00
46241;BME280;31961;52.416;-0.732;2023-04-03T01:03:33;102303.28;;;1.84;100.00
46241;BME280;31961;52.416;-0.732;2023-04-03T01:06:01;102306.97;;;2.02;100.00
46241;BME280;31961;52.416;-0.732;2023-04-03T01:08:29;102310.95;;;2.08;100.00
46241;BME280;31961;52.416;-0.732;2023-04-03T01:10:57;102307.67;;;1.87;100.00
46241;BME280;31961;52.416;-0.732;2023-04-03T01:13:26;102307.63;;;1.31;100.00
46241;BME280;31961;52.416;-0.732;2023-04-03T01:15:54;102309.63;;;1.44;100.00
46241;BME280;31961;52.416;-0.732;2023-04-03T01:18:22;102310.67;;;1.38;100.00
46241;BME280;31961;52.416;-0.732;2023-04-03T01:21:10;102304.60;;;1.52;100.00
46241;BME280;31961;52.416;-0.732;2023-04-03T01:23:53;102304.61;;;1.39;100.00
46241;BME280;31961;52.416;-0.732;2023-04-03T01:26:22;102304.49;;;1.26;100.00
46241;BME280;31961;52.416;-0.732;2023-04-03T01:28:50;102296.28;;;1.30;100.00
46241;BME280;31961;52.416;-0.732;2023-04-03T01:31:22;102300.07;;;1.34;100.00
46241;BME280;31961;52.416;-0.732;2023-04-03T01:33:51;102299.51;;;0.99;100.00
46241;BME280;31961;52.416;-0.732;2023-04-03T01:36:21;102297.11;;;1.14;100.00
46241;BME280;31961;52.416;-0.732;2023-04-03T01:38:48;102297.92;;;1.36;100.00
46241;BME280;31961;52.416;-0.732;2023-04-03T01:41:16;102296.18;;;1.15;100.00
46241;BME280;31961;52.416;-0.732;2023-04-03T01:43:43;102295.04;;;1.02;100.00
46241;BME280;31961;52.416;-0.732;2023-04-03T01:46:10;102295.67;;;0.42;100.00
46241;BME280;31961;52.416;-0.732;2023-04-03T01:48:37;102295.16;;;1.51;100.00
46241;BME280;31961;52.416;-0.732;2023-04-03T01:51:05;102296.32;;;1.08;100.00
46241;BME280;31961;52.416;-0.732;2023-04-03T01:53:32;102299.37;;;1.01;100.00
46241;BME280;31961;52.416;-0.732;2023-04-03T01:56:00;102300.11;;;0.90;100.00
46241;BME280;31961;52.416;-0.732;2023-04-03T01:58:27;102296.76;;;0.76;100.00
46241;BME280;31961;52.416;-0.732;2023-04-03T02:00:54;102299.62;;;0.49;100.00
46241;BME280;31961;52.416;-0.732;2023-04-03T02:03:21;102296.93;;;0.56;100.00
46241;BME280;31961;52.416;-0.732;2023-04-03T02:05:49;102297.18;;;0.46;100.00
46241;BME280;31961;52.416;-0.732;2023-04-03T02:08:17;102296.08;;;1.03;100.00
46241;BME280;31961;52.416;-0.732;2023-04-03T02:10:46;102296.23;;;0.76;100.00
46241;BME280;31961;52.416;-0.732;2023-04-03T02:13:13;102295.40;;;0.33;100.00
46241;BME280;31961;52.416;-0.732;2023-04-03T02:15:41;102296.99;;;0.42;100.00
46241;BME280;31961;52.416;-0.732;2023-04-03T02:18:08;102295.00;;;0.39;100.00
46241;BME280;31961;52.416;-0.732;2023-04-03T02:20:35;102293.90;;;0.68;100.00
46241;BME280;31961;52.416;-0.732;2023-04-03T02:23:02;102288.69;;;0.84;100.00
46241;BME280;31961;52.416;-0.732;2023-04-03T02:25:30;102287.19;;;0.27;100.00
46241;BME280;31961;52.416;-0.732;2023-04-03T02:27:59;102288.99;;;0.69;100.00
46241;BME280;31961;52.416;-0.732;2023-04-03T02:30:26;102286.23;;;0.51;100.00
46241;BME280;31961;52.416;-0.732;2023-04-03T02:32:54;102284.85;;;0.47;100.00
46241;BME280;31961;52.416;-0.732;2023-04-03T02:35:21;102284.87;;;0.40;100.00
46241;BME280;31961;52.416;-0.732;2023-04-03T02:37:49;102282.95;;;0.96;100.00
46241;BME280;31961;52.416;-0.732;2023-04-03T02:40:17;102277.66;;;1.12;100.00
46241;BME280;31961;52.416;-0.732;2023-04-03T02:42:44;102279.52;;;0.93;100.00
46241;BME280;31961;52.416;-0.732;2023-04-03T02:45:11;102280.96;;;1.15;100.00
46241;BME280;31961;52.416;-0.732;2023-04-03T02:47:38;102280.01;;;1.28;100.00
46241;BME280;31961;52.416;-0.732;2023-04-03T02:50:05;102279.48;;;1.10;100.00
46241;BME280;31961;52.416;-0.732;2023-04-03T02:52:32;102278.19;;;0.70;100.00
46241;BME280;31961;52.416;-0.732;2023-04-03T02:55:00;102280.02;;;1.32;100.00
46241;BME280;31961;52.416;-0.732;2023-04-03T02:57:27;102277.47;;;1.28;100.00
46241;BME280;31961;52.416;-0.732;2023-04-03T02:59:54;102277.11;;;1.41;100.00
46241;BME280;31961;52.416;-0.732;2023-04-03T03:02:20;102277.30;;;1.59;100.00
46241;BME280;31961;52.416;-0.732;2023-04-03T03:04:47;102272.31;;;1.27;100.00
46241;BME280;31961;52.416;-0.732;2023-04-03T03:07:14;102273.96;;;0.94;100.00
46241;BME280;31961;52.416;-0.732;2023-04-03T03:09:41;102272.74;;;0.98;100.00
46241;BME280;31961;52.416;-0.732;2023-04-03T03:12:09;102269.72;;;0.74;100.00
46241;BME280;31961;52.416;-0.732;2023-04-03T03:14:36;102274.08;;;1.15;100.00
46241;BME280;31961;52.416;-0.732;2023-04-03T03:17:03;102272.09;;;0.98;100.00
46241;BME280;31961;52.416;-0.732;2023-04-03T03:19:31;102270.32;;;0.80;100.00
46241;BME280;31961;52.416;-0.732;2023-04-03T03:21:57;102269.33;;;1.24;100.00
46241;BME280;31961;52.416;-0.732;2023-04-03T03:24:24;102270.87;;;1.20;100.00
46241;BME280;31961;52.416;-0.732;2023-04-03T03:26:52;102270.28;;;1.63;100.00
46241;BME280;31961;52.416;-0.732;2023-04-03T03:29:19;102268.40;;;1.48;100.00
46241;BME280;31961;52.416;-0.732;2023-04-03T03:31:46;102267.35;;;1.59;100.00
46241;BME280;31961;52.416;-0.732;2023-04-03T03:34:13;102267.65;;;1.24;100.00
46241;BME280;31961;52.416;-0.732;2023-04-03T03:36:40;102265.40;;;1.13;100.00
46241;BME280;31961;52.416;-0.732;2023-04-03T03:39:07;102263.86;;;1.07;100.00
46241;BME280;31961;52.416;-0.732;2023-04-03T03:41:34;102261.99;;;1.42;100.00
46241;BME280;31961;52.416;-0.732;2023-04-03T03:44:01;102256.25;;;0.71;100.00
46241;BME280;31961;52.416;-0.732;2023-04-03T03:46:28;102260.44;;;1.26;100.00
46241;BME280;31961;52.416;-0.732;2023-04-03T03:48:55;102254.92;;;0.91;100.00
46241;BME280;31961;52.416;-0.732;2023-04-03T03:51:22;102254.84;;;0.87;100.00
46241;BME280;31961;52.416;-0.732;2023-04-03T03:53:49;102254.68;;;0.97;100.00
46241;BME280;31961;52.416;-0.732;2023-04-03T03:56:16;102260.12;;;1.07;100.00
46241;BME280;31961;52.416;-0.732;2023-04-03T03:58:43;102253.94;;;0.67;100.00
46241;BME280;31961;52.416;-0.732;2023-04-03T04:01:11;102253.99;;;0.71;100.00
46241;BME280;31961;52.416;-0.732;2023-04-03T04:03:38;102258.55;;;1.20;100.00
46241;BME280;31961;52.416;-0.732;2023-04-03T04:06:06;102258.00;;;0.39;100.00
46241;BME280;31961;52.416;-0.732;2023-04-03T04:08:33;102256.04;;;1.17;100.00
46241;BME280;31961;52.416;-0.732;2023-04-03T04:11:01;102255.31;;;1.13;100.00
46241;BME280;31961;52.416;-0.732;2023-04-03T04:13:28;102260.54;;;1.71;100.00
46241;BME280;31961;52.416;-0.732;2023-04-03T04:15:56;102256.57;;;0.98;100.00
46241;BME280;31961;52.416;-0.732;2023-04-03T04:18:24;102257.33;;;1.14;100.00
46241;BME280;31961;52.416;-0.732;2023-04-03T04:20:51;102257.50;;;1.56;100.00
46241;BME280;31961;52.416;-0.732;2023-04-03T04:23:19;102260.45;;;1.90;100.00
46241;BME280;31961;52.416;-0.732;2023-04-03T04:25:47;102260.68;;;1.59;100.00
46241;BME280;31961;52.416;-0.732;2023-04-03T04:28:15;102261.76;;;1.18;100.00
46241;BME280;31961;52.416;-0.732;2023-04-03T04:30:43;102257.98;;;1.38;100.00
46241;BME280;31961;52.416;-0.732;2023-04-03T04:33:10;102259.46;;;0.81;100.00
46241;BME280;31961;52.416;-0.732;2023-04-03T04:35:37;102260.16;;;1.41;100.00
46241;BME280;31961;52.416;-0.732;2023-04-03T04:38:05;102261.76;;;1.45;100.00
46241;BME280;31961;52.416;-0.732;2023-04-03T04:40:32;102264.16;;;1.62;100.00
46241;BME280;31961;52.416;-0.732;2023-04-03T04:42:59;102261.07;;;1.62;100.00
46241;BME280;31961;52.416;-0.732;2023-04-03T04:45:26;102266.58;;;2.06;100.00
46241;BME280;31961;52.416;-0.732;2023-04-03T04:47:55;102261.32;;;1.99;100.00
46241;BME280;31961;52.416;-0.732;2023-04-03T04:50:22;102261.75;;;2.02;100.00
46241;BME280;31961;52.416;-0.732;2023-04-03T04:52:50;102255.99;;;2.28;100.00
46241;BME280;31961;52.416;-0.732;2023-04-03T04:55:17;102253.18;;;2.28;100.00
46241;BME280;31961;52.416;-0.732;2023-04-03T04:57:44;102260.06;;;1.81;100.00
46241;BME280;31961;52.416;-0.732;2023-04-03T05:00:13;102256.50;;;1.95;100.00
46241;BME280;31961;52.416;-0.732;2023-04-03T05:02:40;102260.68;;;2.37;100.00
46241;BME280;31961;52.416;-0.732;2023-04-03T05:05:08;102256.47;;;2.78;100.00
46241;BME280;31961;52.416;-0.732;2023-04-03T05:07:35;102255.06;;;2.15;100.00
46241;BME280;31961;52.416;-0.732;2023-04-03T05:10:02;102253.03;;;2.46;100.00
46241;BME280;31961;52.416;-0.732;2023-04-03T05:12:30;102254.36;;;2.10;100.00
46241;BME280;31961;52.416;-0.732;2023-04-03T05:14:57;102256.94;;;1.56;100.00
46241;BME280;31961;52.416;-0.732;2023-04-03T05:17:25;102253.01;;;2.33;100.00
46241;BME280;31961;52.416;-0.732;2023-04-03T05:19:52;102258.62;;;1.72;100.00
46241;BME280;31961;52.416;-0.732;2023-04-03T05:22:19;102256.12;;;2.41;100.00
46241;BME280;31961;52.416;-0.732;2023-04-03T05:24:47;102257.88;;;2.39;100.00
46241;BME280;31961;52.416;-0.732;2023-04-03T05:27:14;102257.87;;;2.29;100.00
46241;BME280;31961;52.416;-0.732;2023-04-03T05:29:41;102256.99;;;2.45;100.00
46241;BME280;31961;52.416;-0.732;2023-04-03T05:32:09;102257.33;;;2.39;100.00
46241;BME280;31961;52.416;-0.732;2023-04-03T05:34:37;102260.31;;;1.98;100.00
46241;BME280;31961;52.416;-0.732;2023-04-03T05:37:04;102263.75;;;1.68;100.00
46241;BME280;31961;52.416;-0.732;2023-04-03T05:39:32;102265.82;;;1.94;100.00
46241;BME280;31961;52.416;-0.732;2023-04-03T05:42:00;102264.59;;;2.10;100.00
46241;BME280;31961;52.416;-0.732;2023-04-03T05:44:27;102264.42;;;2.05;100.00
46241;BME280;31961;52.416;-0.732;2023-04-03T05:46:54;102267.60;;;1.95;100.00
46241;BME280;31961;52.416;-0.732;2023-04-03T05:49:21;102266.53;;;2.16;100.00
46241;BME280;31961;52.416;-0.732;2023-04-03T05:51:49;102268.33;;;1.43;100.00
46241;BME280;31961;52.416;-0.732;2023-04-03T05:54:19;102264.75;;;1.46;100.00
46241;BME280;31961;52.416;-0.732;2023-04-03T05:56:47;102272.54;;;1.96;100.00
46241;BME280;31961;52.416;-0.732;2023-04-03T05:59:15;102269.68;;;0.49;100.00
46241;BME280;31961;52.416;-0.732;2023-04-03T06:01:42;102266.70;;;1.53;100.00
46241;BME280;31961;52.416;-0.732;2023-04-03T06:04:09;102265.66;;;1.95;100.00
46241;BME280;31961;52.416;-0.732;2023-04-03T06:06:53;102265.97;;;1.71;100.00
46241;BME280;31961;52.416;-0.732;2023-04-03T06:09:24;102265.90;;;1.87;100.00
46241;BME280;31961;52.416;-0.732;2023-04-03T06:11:51;102263.50;;;1.68;100.00
46241;BME280;31961;52.416;-0.732;2023-04-03T06:14:19;102259.62;;;0.46;100.00
46241;BME280;31961;52.416;-0.732;2023-04-03T06:16:46;102263.88;;;1.28;100.00
46241;BME280;31961;52.416;-0.732;2023-04-03T06:19:14;102262.58;;;2.66;100.00
46241;BME280;31961;52.416;-0.732;2023-04-03T06:21:42;102261.20;;;2.26;100.00
46241;BME280;31961;52.416;-0.732;2023-04-03T06:24:11;102262.47;;;2.60;100.00
46241;BME280;31961;52.416;-0.732;2023-04-03T06:26:39;102265.85;;;1.65;100.00
46241;BME280;31961;52.416;-0.732;2023-04-03T06:29:06;102264.17;;;2.63;100.00
46241;BME280;31961;52.416;-0.732;2023-04-03T06:31:32;102261.86;;;2.88;100.00
46241;BME280;31961;52.416;-0.732;2023-04-03T06:34:00;102262.93;;;2.67;100.00
46241;BME280;31961;52.416;-0.732;2023-04-03T06:36:27;102272.33;;;2.50;100.00
46241;BME280;31961;52.416;-0.732;2023-04-03T06:38:55;102276.73;;;2.34;100.00
46241;BME280;31961;52.416;-0.732;2023-04-03T06:41:23;102273.98;;;2.85;100.00
46241;BME280;31961;52.416;-0.732;2023-04-03T06:43:50;102279.19;;;2.83;100.00
46241;BME280;31961;52.416;-0.732;2023-04-03T06:46:20;102278.57;;;2.65;100.00
46241;BME280;31961;52.416;-0.732;2023-04-03T06:48:48;102282.96;;;2.40;100.00
46241;BME280;31961;52.416;-0.732;2023-04-03T06:51:19;102283.97;;;2.44;100.00
46241;BME280;31961;52.416;-0.732;2023-04-03T06:53:47;102283.25;;;2.50;100.00
46241;BME280;31961;52.416;-0.732;2023-04-03T06:56:14;102276.82;;;3.23;100.00
46241;BME280;31961;52.416;-0.732;2023-04-03T06:58:42;102279.60;;;2.75;100.00
46241;BME280;31961;52.416;-0.732;2023-04-03T07:01:10;102282.94;;;2.55;100.00
46241;BME280;31961;52.416;-0.732;2023-04-03T07:03:37;102279.68;;;3.11;100.00
46241;BME280;31961;52.416;-0.732;2023-04-03T07:06:05;102287.93;;;2.76;100.00
46241;BME280;31961;52.416;-0.732;2023-04-03T07:08:34;102288.64;;;3.28;100.00
46241;BME280;31961;52.416;-0.732;2023-04-03T07:11:02;102282.53;;;3.54;100.00
46241;BME280;31961;52.416;-0.732;2023-04-03T07:13:29;102272.98;;;2.56;100.00
46241;BME280;31961;52.416;-0.732;2023-04-03T07:15:56;102274.46;;;2.90;100.00
46241;BME280;31961;52.416;-0.732;2023-04-03T07:18:24;102279.91;;;3.84;100.00
46241;BME280;31961;52.416;-0.732;2023-04-03T07:20:52;102282.43;;;3.34;100.00
46241;BME280;31961;52.416;-0.732;2023-04-03T07:23:19;102281.20;;;3.05;100.00
46241;BME280;31961;52.416;-0.732;2023-04-03T07:25:49;102276.01;;;4.68;100.00
46241;BME280;31961;52.416;-0.732;2023-04-03T07:28:18;102276.72;;;2.93;100.00
46241;BME280;31961;52.416;-0.732;2023-04-03T07:30:49;102277.10;;;3.86;100.00
46241;BME280;31961;52.416;-0.732;2023-04-03T07:33:18;102274.50;;;3.25;100.00
46241;BME280;31961;52.416;-0.732;2023-04-03T07:35:46;102274.00;;;3.50;100.00
46241;BME280;31961;52.416;-0.732;2023-04-03T07:38:14;102279.31;;;3.51;100.00
46241;BME280;31961;52.416;-0.732;2023-04-03T07:40:46;102278.01;;;3.49;100.00
46241;BME280;31961;52.416;-0.732;2023-04-03T07:43:13;102277.46;;;4.37;100.00
46241;BME280;31961;52.416;-0.732;2023-04-03T07:45:41;102277.81;;;4.18;100.00
46241;BME280;31961;52.416;-0.732;2023-04-03T07:48:09;102280.17;;;3.19;100.00
46241;BME280;31961;52.416;-0.732;2023-04-03T07:50:36;102279.68;;;4.07;100.00
46241;BME280;31961;52.416;-0.732;2023-04-03T07:53:03;102284.14;;;3.56;100.00
46241;BME280;31961;52.416;-0.732;2023-04-03T07:55:31;102279.36;;;5.03;100.00
46241;BME280;31961;52.416;-0.732;2023-04-03T07:57:58;102279.86;;;5.57;100.00
46241;BME280;31961;52.416;-0.732;2023-04-03T08:00:26;102281.37;;;5.22;100.00
46241;BME280;31961;52.416;-0.732;2023-04-03T08:02:53;102284.19;;;5.70;100.00
46241;BME280;31961;52.416;-0.732;2023-04-03T08:05:20;102285.65;;;5.27;100.00
46241;BME280;31961;52.416;-0.732;2023-04-03T08:07:48;102283.04;;;5.58;100.00
46241;BME280;31961;52.416;-0.732;2023-04-03T08:10:16;102284.61;;;5.48;100.00
46241;BME280;31961;52.416;-0.732;2023-04-03T08:12:45;102289.72;;;5.38;100.00
46241;BME280;31961;52.416;-0.732;2023-04-03T08:15:12;102289.37;;;4.85;100.00
46241;BME280;31961;52.416;-0.732;2023-04-03T08:17:40;102291.35;;;4.87;100.00
46241;BME280;31961;52.416;-0.732;2023-04-03T08:20:09;102293.43;;;5.96;100.00
46241;BME280;31961;52.416;-0.732;2023-04-03T08:22:37;102291.40;;;5.97;100.00
46241;BME280;31961;52.416;-0.732;2023-04-03T08:25:05;102292.18;;;6.47;100.00
46241;BME280;31961;52.416;-0.732;2023-04-03T08:27:33;102290.59;;;6.09;100.00
46241;BME280;31961;52.416;-0.732;2023-04-03T08:30:01;102292.85;;;5.60;100.00
46241;BME280;31961;52.416;-0.732;2023-04-03T08:32:28;102289.84;;;5.04;100.00
46241;BME280;31961;52.416;-0.732;2023-04-03T08:34:56;102289.35;;;5.55;100.00
46241;BME280;31961;52.416;-0.732;2023-04-03T08:37:23;102288.69;;;5.89;100.00
46241;BME280;31961;52.416;-0.732;2023-04-03T08:39:50;102289.23;;;6.19;100.00
46241;BME280;31961;52.416;-0.732;2023-04-03T08:42:32;102290.48;;;6.34;100.00
46241;BME280;31961;52.416;-0.732;2023-04-03T08:45:10;102292.21;;;6.38;100.00
46241;BME280;31961;52.416;-0.732;2023-04-03T08:47:44;102289.74;;;6.35;100.00
46241;BME280;31961;52.416;-0.732;2023-04-03T08:50:16;102286.21;;;6.24;100.00
46241;BME280;31961;52.416;-0.732;2023-04-03T08:52:48;102284.30;;;5.80;100.00
46241;BME280;31961;52.416;-0.732;2023-04-03T08:55:23;102285.19;;;5.16;100.00
46241;BME280;31961;52.416;-0.732;2023-04-03T08:57:59;102282.23;;;5.89;100.00
46241;BME280;31961;52.416;-0.732;2023-04-03T09:00:30;102279.45;;;5.85;100.00
46241;BME280;31961;52.416;-0.732;2023-04-03T09:03:01;102275.66;;;6.13;100.00
46241;BME280;31961;52.416;-0.732;2023-04-03T09:05:37;102276.61;;;5.93;100.00
46241;BME280;31961;52.416;-0.732;2023-04-03T09:08:14;102273.76;;;5.92;100.00
46241;BME280;31961;52.416;-0.732;2023-04-03T09:10:43;102275.46;;;5.62;100.00
46241;BME280;31961;52.416;-0.732;2023-04-03T09:13:18;102273.38;;;5.89;100.00
46241;BME280;31961;52.416;-0.732;2023-04-03T09:15:48;102278.17;;;6.22;100.00
46241;BME280;31961;52.416;-0.732;2023-04-03T09:18:20;102280.80;;;6.00;100.00
46241;BME280;31961;52.416;-0.732;2023-04-03T09:20:55;102283.24;;;6.25;100.00
46241;BME280;31961;52.416;-0.732;2023-04-03T09:23:29;102281.94;;;5.40;100.00
46241;BME280;31961;52.416;-0.732;2023-04-03T09:26:02;102277.04;;;5.77;100.00
46241;BME280;31961;52.416;-0.732;2023-04-03T09:28:32;102279.78;;;5.68;100.00
46241;BME280;31961;52.416;-0.732;2023-04-03T09:31:00;102283.35;;;6.61;100.00
46241;BME280;31961;52.416;-0.732;2023-04-03T09:33:30;102279.66;;;6.21;100.00
46241;BME280;31961;52.416;-0.732;2023-04-03T09:35:57;102273.43;;;6.07;100.00
46241;BME280;31961;52.416;-0.732;2023-04-03T09:38:24;102269.78;;;6.77;100.00
46241;BME280;31961;52.416;-0.732;2023-04-03T09:41:05;102264.85;;;7.57;100.00
46241;BME280;31961;52.416;-0.732;2023-04-03T09:43:34;102266.21;;;6.91;100.00
46241;BME280;31961;52.416;-0.732;2023-04-03T09:46:25;102272.87;;;7.66;100.00
46241;BME280;31961;52.416;-0.732;2023-04-03T09:49:01;102268.47;;;7.56;100.00
46241;BME280;31961;52.416;-0.732;2023-04-03T09:51:29;102271.13;;;6.77;100.00
46241;BME280;31961;52.416;-0.732;2023-04-03T09:53:58;102269.56;;;7.56;100.00
46241;BME280;31961;52.416;-0.732;2023-04-03T09:56:27;102267.62;;;7.08;100.00
46241;BME280;31961;52.416;-0.732;2023-04-03T09:59:12;102272.80;;;6.58;100.00
46241;BME280;31961;52.416;-0.732;2023-04-03T10:01:42;102266.75;;;6.93;100.00
46241;BME280;31961;52.416;-0.732;2023-04-03T10:04:11;102274.80;;;6.51;100.00
46241;BME280;31961;52.416;-0.732;2023-04-03T10:06:41;102274.88;;;5.55;100.00
46241;BME280;31961;52.416;-0.732;2023-04-03T10:09:18;102275.33;;;6.45;100.00
46241;BME280;31961;52.416;-0.732;2023-04-03T10:12:04;102264.20;;;6.61;100.00
46241;BME280;31961;52.416;-0.732;2023-04-03T10:14:33;102259.78;;;7.45;100.00
46241;BME280;31961;52.416;-0.732;2023-04-03T10:17:13;102262.33;;;7.97;100.00
46241;BME280;31961;52.416;-0.732;2023-04-03T10:19:46;102258.42;;;7.83;99.93
46241;BME280;31961;52.416;-0.732;2023-04-03T10:22:20;102254.84;;;8.16;97.99
46241;BME280;31961;52.416;-0.732;2023-04-03T10:24:59;102255.95;;;7.91;93.89
46241;BME280;31961;52.416;-0.732;2023-04-03T10:27:39;102255.18;;;8.38;90.09
46241;BME280;31961;52.416;-0.732;2023-04-03T10:30:20;102255.71;;;8.46;89.77
46241;BME280;31961;52.416;-0.732;2023-04-03T10:33:00;102252.05;;;7.29;94.55
46241;BME280;31961;52.416;-0.732;2023-04-03T10:35:42;102256.76;;;6.73;100.00
46241;BME280;31961;52.416;-0.732;2023-04-03T10:38:16;102255.53;;;6.51;100.00
46241;BME280;31961;52.416;-0.732;2023-04-03T10:40:52;102242.95;;;7.14;97.23
46241;BME280;31961;52.416;-0.732;2023-04-03T10:43:30;102242.09;;;7.05;100.00
46241;BME280;31961;52.416;-0.732;2023-04-03T10:46:03;102237.37;;;7.47;98.51
46241;BME280;31961;52.416;-0.732;2023-04-03T10:48:41;102237.74;;;6.95;95.65
46241;BME280;31961;52.416;-0.732;2023-04-03T10:51:20;102240.64;;;6.95;100.00
46241;BME280;31961;52.416;-0.732;2023-04-03T10:53:55;102241.22;;;8.41;95.99
46241;BME280;31961;52.416;-0.732;2023-04-03T10:56:31;102243.22;;;8.46;94.24
46241;BME280;31961;52.416;-0.732;2023-04-03T10:59:02;102243.47;;;8.00;92.80
46241;BME280;31961;52.416;-0.732;2023-04-03T11:01:37;102233.17;;;8.64;88.71
46241;BME280;31961;52.416;-0.732;2023-04-03T11:04:06;102234.12;;;8.12;87.58
46241;BME280;31961;52.416;-0.732;2023-04-03T11:06:37;102228.37;;;8.19;85.68
46241;BME280;31961;52.416;-0.732;2023-04-03T11:09:15;102222.32;;;8.65;86.49
46241;BME280;31961;52.416;-0.732;2023-04-03T11:11:45;102229.45;;;7.85;85.74
46241;BME280;31961;52.416;-0.732;2023-04-03T11:14:20;102226.71;;;7.27;91.26
46241;BME280;31961;52.416;-0.732;2023-04-03T11:16:59;102225.28;;;7.15;90.66
46241;BME280;31961;52.416;-0.732;2023-04-03T11:19:35;102220.39;;;7.42;89.67
46241;BME280;31961;52.416;-0.732;2023-04-03T11:22:10;102215.17;;;7.90;91.29
46241;BME280;31961;52.416;-0.732;2023-04-03T11:24:42;102212.58;;;7.74;91.06
46241;BME280;31961;52.416;-0.732;2023-04-03T11:27:15;102216.22;;;8.12;92.45
46241;BME280;31961;52.416;-0.732;2023-04-03T11:29:45;102210.68;;;8.44;85.96
46241;BME280;31961;52.416;-0.732;2023-04-03T11:32:38;102213.01;;;7.52;91.45
46241;BME280;31961;52.416;-0.732;2023-04-03T11:35:11;102204.03;;;8.50;88.86
46241;BME280;31961;52.416;-0.732;2023-04-03T11:37:40;102213.04;;;7.74;83.32
46241;BME280;31961;52.416;-0.732;2023-04-03T11:40:20;102201.26;;;8.28;81.44
46241;BME280;31961;52.416;-0.732;2023-04-03T11:42:51;102205.30;;;7.74;83.52
46241;BME280;31961;52.416;-0.732;2023-04-03T11:45:29;102205.76;;;7.80;81.26
46241;BME280;31961;52.416;-0.732;2023-04-03T11:47:59;102200.96;;;7.75;73.78
46241;BME280;31961;52.416;-0.732;2023-04-03T11:50:44;102196.33;;;7.64;80.15
46241;BME280;31961;52.416;-0.732;2023-04-03T11:53:35;102193.86;;;7.61;83.24
46241;BME280;31961;52.416;-0.732;2023-04-03T11:56:28;102192.01;;;7.64;92.51
46241;BME280;31961;52.416;-0.732;2023-04-03T11:59:22;102190.64;;;8.11;86.30
46241;BME280;31961;52.416;-0.732;2023-04-03T12:01:51;102185.63;;;8.46;81.80
46241;BME280;31961;52.416;-0.732;2023-04-03T12:04:20;102181.19;;;8.71;80.54
46241;BME280;31961;52.416;-0.732;2023-04-03T12:06:53;102189.95;;;8.21;79.31
46241;BME280;31961;52.416;-0.732;2023-04-03T12:09:27;102185.77;;;8.78;80.58
46241;BME280;31961;52.416;-0.732;2023-04-03T12:11:56;102181.45;;;9.39;79.08
46241;BME280;31961;52.416;-0.732;2023-04-03T12:14:25;102181.45;;;9.66;77.84
46241;BME280;31961;52.416;-0.732;2023-04-03T12:16:55;102176.69;;;9.19;73.32
46241;BME280;31961;52.416;-0.732;2023-04-03T12:19:33;102178.02;;;9.32;73.95
46241;BME280;31961;52.416;-0.732;2023-04-03T12:22:11;102175.83;;;9.69;71.82
46241;BME280;31961;52.416;-0.732;2023-04-03T12:24:40;102174.51;;;8.92;81.07
46241;BME280;31961;52.416;-0.732;2023-04-03T12:27:42;102175.71;;;9.20;75.92
46241;BME280;31961;52.416;-0.732;2023-04-03T12:30:16;102171.24;;;8.77;74.83
46241;BME280;31961;52.416;-0.732;2023-04-03T12:33:14;102169.04;;;8.68;81.55
46241;BME280;31961;52.416;-0.732;2023-04-03T12:35:54;102163.73;;;9.01;73.57
46241;BME280;31961;52.416;-0.732;2023-04-03T12:38:38;102165.11;;;9.76;73.92
46241;BME280;31961;52.416;-0.732;2023-04-03T12:41:21;102160.05;;;9.86;66.75
46241;BME280;31961;52.416;-0.732;2023-04-03T12:44:03;102157.43;;;10.60;65.93
46241;BME280;31961;52.416;-0.732;2023-04-03T12:46:58;102157.85;;;10.16;67.71
46241;BME280;31961;52.416;-0.732;2023-04-03T12:49:47;102154.27;;;10.66;68.61
46241;BME280;31961;52.416;-0.732;2023-04-03T12:52:36;102155.56;;;10.50;62.78
46241;BME280;31961;52.416;-0.732;2023-04-03T12:55:26;102153.41;;;10.97;62.54
46241;BME280;31961;52.416;-0.732;2023-04-03T12:58:15;102146.65;;;12.23;60.96